sensor_id;sensor_type;location;lat;lon;timestamp;P1;durP1;ratioP1;P2;durP2;ratioP2
19343;SDS011;9808;52.402;16.678;2023-11-21T00:00:18;53.03;;;19.57;;
19343;SDS011;9808;52.402;16.678;2023-11-21T00:02:46;52.57;;;19.70;;
19343;SDS011;9808;52.402;16.678;2023-11-21T00:05:14;61.93;;;20.97;;
19343;SDS011;9808;52.402;16.678;2023-11-21T00:07:42;57.43;;;19.03;;
19343;SDS011;9808;52.402;16.678;2023-11-21T00:10:10;50.03;;;18.30;;
19343;SDS011;9808;52.402;16.678;2023-11-21T00:12:40;55.63;;;17.53;;
19343;SDS011;9808;52.402;16.678;2023-11-21T00:15:08;50.10;;;18.90;;
19343;SDS011;9808;52.402;16.678;2023-11-21T00:17:37;64.63;;;18.63;;
19343;SDS011;9808;52.402;16.678;2023-11-21T00:20:06;52.87;;;17.50;;
19343;SDS011;9808;52.402;16.678;2023-11-21T00:22:34;49.30;;;18.53;;
19343;SDS011;9808;52.402;16.678;2023-11-21T00:25:01;49.27;;;17.97;;
19343;SDS011;9808;52.402;16.678;2023-11-21T00:27:30;61.13;;;18.00;;
19343;SDS011;9808;52.402;16.678;2023-11-21T00:29:57;47.40;;;16.03;;
19343;SDS011;9808;52.402;16.678;2023-11-21T00:32:25;55.67;;;18.37;;
19343;SDS011;9808;52.402;16.678;2023-11-21T00:34:52;58.77;;;17.40;;
19343;SDS011;9808;52.402;16.678;2023-11-21T00:37:20;42.77;;;16.27;;
19343;SDS011;9808;52.402;16.678;2023-11-21T00:39:48;48.73;;;16.80;;
19343;SDS011;9808;52.402;16.678;2023-11-21T00:42:15;51.37;;;18.23;;
19343;SDS011;9808;52.402;16.678;2023-11-21T00:44:42;60.37;;;17.23;;
19343;SDS011;9808;52.402;16.678;2023-11-21T00:47:09;40.67;;;15.60;;
19343;SDS011;9808;52.402;16.678;2023-11-21T00:49:37;59.50;;;16.90;;
19343;SDS011;9808;52.402;16.678;2023-11-21T00:52:06;44.33;;;16.33;;
19343;SDS011;9808;52.402;16.678;2023-11-21T00:54:33;59.30;;;15.40;;
19343;SDS011;9808;52.402;16.678;2023-11-21T00:57:00;57.73;;;15.63;;
19343;SDS011;9808;52.402;16.678;2023-11-21T00:59:28;58.30;;;15.23;;
19343;SDS011;9808;52.402;16.678;2023-11-21T01:01:55;58.17;;;15.63;;
19343;SDS011;9808;52.402;16.678;2023-11-21T01:04:22;60.33;;;16.43;;
19343;SDS011;9808;52.402;16.678;2023-11-21T01:06:50;45.60;;;14.90;;
19343;SDS011;9808;52.402;16.678;2023-11-21T01:09:17;47.07;;;15.13;;
19343;SDS011;9808;52.402;16.678;2023-11-21T01:11:44;58.50;;;15.77;;
19343;SDS011;9808;52.402;16.678;2023-11-21T01:14:12;60.57;;;16.73;;
19343;SDS011;9808;52.402;16.678;2023-11-21T01:16:40;55.03;;;16.97;;
19343;SDS011;9808;52.402;16.678;2023-11-21T01:19:07;69.23;;;17.20;;
19343;SDS011;9808;52.402;16.678;2023-11-21T01:21:35;52.87;;;17.10;;
19343;SDS011;9808;52.402;16.678;2023-11-21T01:24:03;50.40;;;16.53;;
19343;SDS011;9808;52.402;16.678;2023-11-21T01:26:33;47.33;;;16.47;;
19343;SDS011;9808;52.402;16.678;2023-11-21T01:29:00;49.57;;;16.47;;
19343;SDS011;9808;52.402;16.678;2023-11-21T01:31:28;53.90;;;16.67;;
19343;SDS011;9808;52.402;16.678;2023-11-21T01:33:56;50.67;;;17.47;;
19343;SDS011;9808;52.402;16.678;2023-11-21T01:36:29;73.43;;;17.47;;
19343;SDS011;9808;52.402;16.678;2023-11-21T01:38:58;51.87;;;17.80;;
19343;SDS011;9808;52.402;16.678;2023-11-21T01:41:26;56.07;;;17.70;;
19343;SDS011;9808;52.402;16.678;2023-11-21T01:43:54;59.43;;;17.20;;
19343;SDS011;9808;52.402;16.678;2023-11-21T01:46:22;62.57;;;18.13;;
19343;SDS011;9808;52.402;16.678;2023-11-21T01:48:50;45.53;;;17.23;;
19343;SDS011;9808;52.402;16.678;2023-11-21T01:51:19;68.43;;;19.80;;
19343;SDS011;9808;52.402;16.678;2023-11-21T01:53:46;69.27;;;17.83;;
19343;SDS011;9808;52.402;16.678;2023-11-21T01:56:14;69.30;;;18.57;;
19343;SDS011;9808;52.402;16.678;2023-11-21T01:58:41;58.33;;;17.73;;
19343;SDS011;9808;52.402;16.678;2023-11-21T02:01:09;57.20;;;18.73;;
19343;SDS011;9808;52.402;16.678;2023-11-21T02:03:37;54.37;;;18.30;;
19343;SDS011;9808;52.402;16.678;2023-11-21T02:06:05;61.57;;;18.33;;
19343;SDS011;9808;52.402;16.678;2023-11-21T02:08:32;62.10;;;18.00;;
19343;SDS011;9808;52.402;16.678;2023-11-21T02:10:59;55.33;;;17.93;;
19343;SDS011;9808;52.402;16.678;2023-11-21T02:13:26;82.27;;;19.87;;
19343;SDS011;9808;52.402;16.678;2023-11-21T02:15:54;57.23;;;18.67;;
19343;SDS011;9808;52.402;16.678;2023-11-21T02:18:22;64.53;;;18.77;;
19343;SDS011;9808;52.402;16.678;2023-11-21T02:20:49;63.23;;;20.23;;
19343;SDS011;9808;52.402;16.678;2023-11-21T02:23:17;69.23;;;19.93;;
19343;SDS011;9808;52.402;16.678;2023-11-21T02:25:44;56.87;;;18.73;;
19343;SDS011;9808;52.402;16.678;2023-11-21T02:28:13;64.77;;;19.50;;
19343;SDS011;9808;52.402;16.678;2023-11-21T02:30:42;58.20;;;18.60;;
19343;SDS011;9808;52.402;16.678;2023-11-21T02:33:10;48.67;;;18.27;;
19343;SDS011;9808;52.402;16.678;2023-11-21T02:35:38;70.90;;;19.90;;
19343;SDS011;9808;52.402;16.678;2023-11-21T02:38:06;64.63;;;20.00;;
19343;SDS011;9808;52.402;16.678;2023-11-21T02:40:33;66.63;;;19.97;;
19343;SDS011;9808;52.402;16.678;2023-11-21T02:43:00;70.03;;;20.67;;
19343;SDS011;9808;52.402;16.678;2023-11-21T02:45:28;67.40;;;20.60;;
19343;SDS011;9808;52.402;16.678;2023-11-21T02:47:55;61.33;;;20.70;;
19343;SDS011;9808;52.402;16.678;2023-11-21T02:50:24;73.50;;;20.60;;
19343;SDS011;9808;52.402;16.678;2023-11-21T02:52:52;71.60;;;21.00;;
19343;SDS011;9808;52.402;16.678;2023-11-21T02:55:19;67.83;;;20.80;;
19343;SDS011;9808;52.402;16.678;2023-11-21T02:57:46;63.43;;;20.67;;
19343;SDS011;9808;52.402;16.678;2023-11-21T03:00:14;56.03;;;19.63;;
19343;SDS011;9808;52.402;16.678;2023-11-21T03:02:41;66.53;;;19.63;;
19343;SDS011;9808;52.402;16.678;2023-11-21T03:05:10;66.47;;;20.83;;
19343;SDS011;9808;52.402;16.678;2023-11-21T03:07:38;60.20;;;20.07;;
19343;SDS011;9808;52.402;16.678;2023-11-21T03:10:06;69.77;;;20.43;;
19343;SDS011;9808;52.402;16.678;2023-11-21T03:12:36;62.30;;;20.90;;
19343;SDS011;9808;52.402;16.678;2023-11-21T03:15:06;55.07;;;20.33;;
19343;SDS011;9808;52.402;16.678;2023-11-21T03:17:34;54.20;;;20.13;;
19343;SDS011;9808;52.402;16.678;2023-11-21T03:20:01;55.63;;;20.07;;
19343;SDS011;9808;52.402;16.678;2023-11-21T03:22:30;78.63;;;21.47;;
19343;SDS011;9808;52.402;16.678;2023-11-21T03:24:57;58.50;;;20.50;;
19343;SDS011;9808;52.402;16.678;2023-11-21T03:27:25;58.00;;;20.13;;
19343;SDS011;9808;52.402;16.678;2023-11-21T03:29:52;52.83;;;19.10;;
19343;SDS011;9808;52.402;16.678;2023-11-21T03:32:21;51.57;;;19.27;;
19343;SDS011;9808;52.402;16.678;2023-11-21T03:34:55;52.77;;;19.67;;
19343;SDS011;9808;52.402;16.678;2023-11-21T03:37:26;52.20;;;20.60;;
19343;SDS011;9808;52.402;16.678;2023-11-21T03:39:56;49.00;;;20.20;;
19343;SDS011;9808;52.402;16.678;2023-11-21T03:42:23;53.53;;;19.70;;
19343;SDS011;9808;52.402;16.678;2023-11-21T03:44:53;48.40;;;19.37;;
19343;SDS011;9808;52.402;16.678;2023-11-21T03:47:20;44.53;;;16.77;;
19343;SDS011;9808;52.402;16.678;2023-11-21T03:49:47;42.70;;;16.83;;
19343;SDS011;9808;52.402;16.678;2023-11-21T03:52:15;32.17;;;13.60;;
19343;SDS011;9808;52.402;16.678;2023-11-21T03:54:42;29.13;;;12.77;;
19343;SDS011;9808;52.402;16.678;2023-11-21T03:57:10;30.57;;;12.43;;
19343;SDS011;9808;52.402;16.678;2023-11-21T03:59:41;29.77;;;12.37;;
19343;SDS011;9808;52.402;16.678;2023-11-21T04:02:08;28.10;;;11.90;;
19343;SDS011;9808;52.402;16.678;2023-11-21T04:04:36;26.07;;;11.53;;
19343;SDS011;9808;52.402;16.678;2023-11-21T04:07:03;28.00;;;10.97;;
19343;SDS011;9808;52.402;16.678;2023-11-21T04:09:31;28.47;;;11.43;;
19343;SDS011;9808;52.402;16.678;2023-11-21T04:11:58;23.10;;;9.77;;
19343;SDS011;9808;52.402;16.678;2023-11-21T04:14:25;24.67;;;10.07;;
19343;SDS011;9808;52.402;16.678;2023-11-21T04:16:53;22.13;;;10.07;;
19343;SDS011;9808;52.402;16.678;2023-11-21T04:19:20;22.67;;;9.67;;
19343;SDS011;9808;52.402;16.678;2023-11-21T04:21:48;25.37;;;10.77;;
19343;SDS011;9808;52.402;16.678;2023-11-21T04:24:15;22.20;;;9.90;;
19343;SDS011;9808;52.402;16.678;2023-11-21T04:26:43;25.23;;;10.70;;
19343;SDS011;9808;52.402;16.678;2023-11-21T04:29:10;17.97;;;8.23;;
19343;SDS011;9808;52.402;16.678;2023-11-21T04:31:38;20.50;;;8.67;;
19343;SDS011;9808;52.402;16.678;2023-11-21T04:34:05;20.83;;;8.97;;
19343;SDS011;9808;52.402;16.678;2023-11-21T04:36:32;24.90;;;9.03;;
19343;SDS011;9808;52.402;16.678;2023-11-21T04:39:01;21.33;;;8.93;;
19343;SDS011;9808;52.402;16.678;2023-11-21T04:41:28;20.53;;;9.20;;
19343;SDS011;9808;52.402;16.678;2023-11-21T04:43:57;21.17;;;9.37;;
19343;SDS011;9808;52.402;16.678;2023-11-21T04:46:27;24.37;;;9.57;;
19343;SDS011;9808;52.402;16.678;2023-11-21T04:48:54;18.87;;;8.33;;
19343;SDS011;9808;52.402;16.678;2023-11-21T04:51:21;19.00;;;8.37;;
19343;SDS011;9808;52.402;16.678;2023-11-21T04:53:49;20.43;;;9.30;;
19343;SDS011;9808;52.402;16.678;2023-11-21T04:56:16;22.00;;;8.80;;
19343;SDS011;9808;52.402;16.678;2023-11-21T04:58:43;16.10;;;7.47;;
19343;SDS011;9808;52.402;16.678;2023-11-21T05:01:10;18.00;;;8.03;;
19343;SDS011;9808;52.402;16.678;2023-11-21T05:03:38;12.83;;;5.57;;
19343;SDS011;9808;52.402;16.678;2023-11-21T05:06:06;15.10;;;7.60;;
19343;SDS011;9808;52.402;16.678;2023-11-21T05:08:33;13.87;;;6.83;;
19343;SDS011;9808;52.402;16.678;2023-11-21T05:11:01;13.27;;;6.33;;
19343;SDS011;9808;52.402;16.678;2023-11-21T05:13:28;14.93;;;6.27;;
19343;SDS011;9808;52.402;16.678;2023-11-21T05:15:55;14.47;;;6.67;;
19343;SDS011;9808;52.402;16.678;2023-11-21T05:18:26;12.73;;;6.63;;
19343;SDS011;9808;52.402;16.678;2023-11-21T05:20:53;14.00;;;6.73;;
19343;SDS011;9808;52.402;16.678;2023-11-21T05:23:20;12.47;;;6.20;;
19343;SDS011;9808;52.402;16.678;2023-11-21T05:25:48;14.60;;;6.40;;
19343;SDS011;9808;52.402;16.678;2023-11-21T05:28:15;13.10;;;5.93;;
19343;SDS011;9808;52.402;16.678;2023-11-21T05:30:42;12.83;;;6.20;;
19343;SDS011;9808;52.402;16.678;2023-11-21T05:33:10;12.13;;;6.07;;
19343;SDS011;9808;52.402;16.678;2023-11-21T05:35:37;10.37;;;5.07;;
19343;SDS011;9808;52.402;16.678;2023-11-21T05:38:05;12.13;;;5.63;;
19343;SDS011;9808;52.402;16.678;2023-11-21T05:40:32;11.43;;;5.87;;
19343;SDS011;9808;52.402;16.678;2023-11-21T05:42:59;11.27;;;5.47;;
19343;SDS011;9808;52.402;16.678;2023-11-21T05:45:27;12.03;;;6.07;;
19343;SDS011;9808;52.402;16.678;2023-11-21T05:47:57;12.43;;;5.50;;
19343;SDS011;9808;52.402;16.678;2023-11-21T05:50:24;12.03;;;6.33;;
19343;SDS011;9808;52.402;16.678;2023-11-21T05:52:52;12.77;;;6.10;;
19343;SDS011;9808;52.402;16.678;2023-11-21T05:55:19;12.93;;;6.03;;
19343;SDS011;9808;52.402;16.678;2023-11-21T05:57:47;12.43;;;6.27;;
19343;SDS011;9808;52.402;16.678;2023-11-21T06:00:14;12.07;;;5.50;;
19343;SDS011;9808;52.402;16.678;2023-11-21T06:02:48;10.77;;;5.20;;
19343;SDS011;9808;52.402;16.678;2023-11-21T06:05:24;11.73;;;5.83;;
19343;SDS011;9808;52.402;16.678;2023-11-21T06:07:52;13.07;;;5.40;;
19343;SDS011;9808;52.402;16.678;2023-11-21T06:10:20;10.67;;;5.90;;
19343;SDS011;9808;52.402;16.678;2023-11-21T06:12:51;11.30;;;4.77;;
19343;SDS011;9808;52.402;16.678;2023-11-21T06:15:18;10.67;;;5.23;;
19343;SDS011;9808;52.402;16.678;2023-11-21T06:17:47;10.47;;;4.87;;
19343;SDS011;9808;52.402;16.678;2023-11-21T06:20:20;10.57;;;5.60;;
19343;SDS011;9808;52.402;16.678;2023-11-21T06:22:48;9.47;;;5.20;;
19343;SDS011;9808;52.402;16.678;2023-11-21T06:25:16;14.23;;;5.63;;
19343;SDS011;9808;52.402;16.678;2023-11-21T06:27:45;11.03;;;5.23;;
19343;SDS011;9808;52.402;16.678;2023-11-21T06:30:12;10.20;;;5.33;;
19343;SDS011;9808;52.402;16.678;2023-11-21T06:32:41;11.20;;;5.50;;
19343;SDS011;9808;52.402;16.678;2023-11-21T06:35:13;11.10;;;5.60;;
19343;SDS011;9808;52.402;16.678;2023-11-21T06:37:43;11.13;;;5.97;;
19343;SDS011;9808;52.402;16.678;2023-11-21T06:40:18;13.10;;;6.13;;
19343;SDS011;9808;52.402;16.678;2023-11-21T06:42:47;12.33;;;6.70;;
19343;SDS011;9808;52.402;16.678;2023-11-21T06:45:15;12.60;;;6.73;;
19343;SDS011;9808;52.402;16.678;2023-11-21T06:47:43;13.00;;;7.10;;
19343;SDS011;9808;52.402;16.678;2023-11-21T06:50:11;13.10;;;6.90;;
19343;SDS011;9808;52.402;16.678;2023-11-21T06:52:38;18.47;;;7.87;;
19343;SDS011;9808;52.402;16.678;2023-11-21T06:55:06;18.93;;;6.93;;
19343;SDS011;9808;52.402;16.678;2023-11-21T06:57:35;14.07;;;7.07;;
19343;SDS011;9808;52.402;16.678;2023-11-21T07:00:02;15.90;;;7.90;;
19343;SDS011;9808;52.402;16.678;2023-11-21T07:02:30;12.50;;;7.70;;
19343;SDS011;9808;52.402;16.678;2023-11-21T07:04:57;16.43;;;8.60;;
19343;SDS011;9808;52.402;16.678;2023-11-21T07:07:25;16.07;;;7.57;;
19343;SDS011;9808;52.402;16.678;2023-11-21T07:09:52;15.70;;;8.17;;
19343;SDS011;9808;52.402;16.678;2023-11-21T07:12:20;15.10;;;7.67;;
19343;SDS011;9808;52.402;16.678;2023-11-21T07:14:50;15.30;;;8.20;;
19343;SDS011;9808;52.402;16.678;2023-11-21T07:17:17;17.03;;;8.80;;
19343;SDS011;9808;52.402;16.678;2023-11-21T07:19:45;15.10;;;7.83;;
19343;SDS011;9808;52.402;16.678;2023-11-21T07:22:12;14.23;;;7.70;;
19343;SDS011;9808;52.402;16.678;2023-11-21T07:24:40;16.93;;;8.67;;
19343;SDS011;9808;52.402;16.678;2023-11-21T07:27:07;14.00;;;7.60;;
19343;SDS011;9808;52.402;16.678;2023-11-21T07:29:34;14.83;;;8.33;;
19343;SDS011;9808;52.402;16.678;2023-11-21T07:32:02;14.33;;;7.50;;
19343;SDS011;9808;52.402;16.678;2023-11-21T07:34:30;17.70;;;8.33;;
19343;SDS011;9808;52.402;16.678;2023-11-21T07:36:57;15.23;;;7.80;;
19343;SDS011;9808;52.402;16.678;2023-11-21T07:39:24;11.20;;;6.20;;
19343;SDS011;9808;52.402;16.678;2023-11-21T07:41:52;12.33;;;6.53;;
19343;SDS011;9808;52.402;16.678;2023-11-21T07:44:19;14.03;;;7.27;;
19343;SDS011;9808;52.402;16.678;2023-11-21T07:46:47;13.57;;;7.47;;
19343;SDS011;9808;52.402;16.678;2023-11-21T07:49:16;11.13;;;5.83;;
19343;SDS011;9808;52.402;16.678;2023-11-21T07:51:47;10.97;;;6.37;;
19343;SDS011;9808;52.402;16.678;2023-11-21T07:54:14;11.37;;;6.20;;
19343;SDS011;9808;52.402;16.678;2023-11-21T07:56:42;10.60;;;6.07;;
19343;SDS011;9808;52.402;16.678;2023-11-21T07:59:09;11.33;;;5.90;;
19343;SDS011;9808;52.402;16.678;2023-11-21T08:01:37;10.47;;;5.77;;
19343;SDS011;9808;52.402;16.678;2023-11-21T08:04:06;10.23;;;5.60;;
19343;SDS011;9808;52.402;16.678;2023-11-21T08:06:37;11.03;;;6.10;;
19343;SDS011;9808;52.402;16.678;2023-11-21T08:09:04;13.47;;;6.53;;
19343;SDS011;9808;52.402;16.678;2023-11-21T08:11:34;13.33;;;6.30;;
19343;SDS011;9808;52.402;16.678;2023-11-21T08:14:01;12.87;;;6.73;;
19343;SDS011;9808;52.402;16.678;2023-11-21T08:16:29;12.43;;;6.17;;
19343;SDS011;9808;52.402;16.678;2023-11-21T08:18:56;12.97;;;6.10;;
19343;SDS011;9808;52.402;16.678;2023-11-21T08:21:23;10.97;;;6.10;;
19343;SDS011;9808;52.402;16.678;2023-11-21T08:23:51;11.87;;;6.10;;
19343;SDS011;9808;52.402;16.678;2023-11-21T08:26:21;11.87;;;5.80;;
19343;SDS011;9808;52.402;16.678;2023-11-21T08:28:49;9.97;;;5.43;;
19343;SDS011;9808;52.402;16.678;2023-11-21T08:31:25;11.27;;;5.33;;
19343;SDS011;9808;52.402;16.678;2023-11-21T08:33:53;10.10;;;5.00;;
19343;SDS011;9808;52.402;16.678;2023-11-21T08:36:23;11.03;;;5.97;;
19343;SDS011;9808;52.402;16.678;2023-11-21T08:38:51;12.00;;;6.03;;
19343;SDS011;9808;52.402;16.678;2023-11-21T08:41:18;11.67;;;5.77;;
19343;SDS011;9808;52.402;16.678;2023-11-21T08:43:52;11.33;;;5.80;;
19343;SDS011;9808;52.402;16.678;2023-11-21T08:46:21;11.30;;;5.47;;
19343;SDS011;9808;52.402;16.678;2023-11-21T08:48:49;10.67;;;5.37;;
19343;SDS011;9808;52.402;16.678;2023-11-21T08:51:18;10.50;;;5.70;;
19343;SDS011;9808;52.402;16.678;2023-11-21T08:53:46;11.37;;;5.53;;
19343;SDS011;9808;52.402;16.678;2023-11-21T08:56:14;10.13;;;5.17;;
19343;SDS011;9808;52.402;16.678;2023-11-21T08:58:41;12.40;;;5.93;;
19343;SDS011;9808;52.402;16.678;2023-11-21T09:01:08;11.97;;;5.67;;
19343;SDS011;9808;52.402;16.678;2023-11-21T09:03:36;10.30;;;5.30;;
19343;SDS011;9808;52.402;16.678;2023-11-21T09:06:05;10.00;;;5.63;;
19343;SDS011;9808;52.402;16.678;2023-11-21T09:08:35;11.20;;;5.77;;
19343;SDS011;9808;52.402;16.678;2023-11-21T09:11:02;10.33;;;5.37;;
19343;SDS011;9808;52.402;16.678;2023-11-21T09:13:30;11.63;;;5.97;;
19343;SDS011;9808;52.402;16.678;2023-11-21T09:15:57;12.40;;;6.30;;
19343;SDS011;9808;52.402;16.678;2023-11-21T09:18:24;12.27;;;6.50;;
19343;SDS011;9808;52.402;16.678;2023-11-21T09:20:52;11.87;;;6.57;;
19343;SDS011;9808;52.402;16.678;2023-11-21T09:23:19;15.13;;;8.03;;
19343;SDS011;9808;52.402;16.678;2023-11-21T09:25:47;14.37;;;7.13;;
19343;SDS011;9808;52.402;16.678;2023-11-21T09:28:16;14.57;;;7.87;;
19343;SDS011;9808;52.402;16.678;2023-11-21T09:30:43;16.13;;;7.83;;
19343;SDS011;9808;52.402;16.678;2023-11-21T09:33:11;18.33;;;8.60;;
19343;SDS011;9808;52.402;16.678;2023-11-21T09:35:38;16.40;;;8.87;;
19343;SDS011;9808;52.402;16.678;2023-11-21T09:38:05;19.33;;;9.10;;
19343;SDS011;9808;52.402;16.678;2023-11-21T09:40:37;19.13;;;9.33;;
19343;SDS011;9808;52.402;16.678;2023-11-21T09:43:06;18.30;;;9.10;;
19343;SDS011;9808;52.402;16.678;2023-11-21T09:45:37;17.30;;;8.63;;
19343;SDS011;9808;52.402;16.678;2023-11-21T09:48:05;18.83;;;10.33;;
19343;SDS011;9808;52.402;16.678;2023-11-21T09:50:34;21.00;;;11.13;;
19343;SDS011;9808;52.402;16.678;2023-11-21T09:53:19;18.10;;;9.63;;
19343;SDS011;9808;52.402;16.678;2023-11-21T09:55:53;24.27;;;11.53;;
19343;SDS011;9808;52.402;16.678;2023-11-21T09:58:22;22.23;;;11.37;;
19343;SDS011;9808;52.402;16.678;2023-11-21T10:00:52;20.97;;;10.97;;
19343;SDS011;9808;52.402;16.678;2023-11-21T10:03:20;24.30;;;11.83;;
19343;SDS011;9808;52.402;16.678;2023-11-21T10:05:48;22.83;;;10.97;;
19343;SDS011;9808;52.402;16.678;2023-11-21T10:08:17;22.27;;;11.20;;
19343;SDS011;9808;52.402;16.678;2023-11-21T10:10:45;24.37;;;10.20;;
19343;SDS011;9808;52.402;16.678;2023-11-21T10:13:13;20.10;;;11.27;;
19343;SDS011;9808;52.402;16.678;2023-11-21T10:15:44;23.57;;;11.47;;
19343;SDS011;9808;52.402;16.678;2023-11-21T10:18:16;27.67;;;12.47;;
19343;SDS011;9808;52.402;16.678;2023-11-21T10:20:45;23.40;;;11.90;;
19343;SDS011;9808;52.402;16.678;2023-11-21T10:23:20;20.70;;;10.40;;
19343;SDS011;9808;52.402;16.678;2023-11-21T10:25:50;23.37;;;11.77;;
19343;SDS011;9808;52.402;16.678;2023-11-21T10:28:19;21.57;;;11.23;;
19343;SDS011;9808;52.402;16.678;2023-11-21T10:30:47;22.03;;;11.93;;
19343;SDS011;9808;52.402;16.678;2023-11-21T10:33:15;24.17;;;12.00;;
19343;SDS011;9808;52.402;16.678;2023-11-21T10:35:47;26.17;;;12.23;;
19343;SDS011;9808;52.402;16.678;2023-11-21T10:38:22;24.27;;;12.07;;
19343;SDS011;9808;52.402;16.678;2023-11-21T10:40:51;24.03;;;12.13;;
19343;SDS011;9808;52.402;16.678;2023-11-21T10:43:19;24.13;;;11.57;;
19343;SDS011;9808;52.402;16.678;2023-11-21T10:45:47;21.63;;;11.67;;
19343;SDS011;9808;52.402;16.678;2023-11-21T10:48:14;28.00;;;12.63;;
19343;SDS011;9808;52.402;16.678;2023-11-21T10:50:43;25.27;;;12.20;;
19343;SDS011;9808;52.402;16.678;2023-11-21T10:53:10;24.33;;;12.57;;
19343;SDS011;9808;52.402;16.678;2023-11-21T10:55:39;23.03;;;11.40;;
19343;SDS011;9808;52.402;16.678;2023-11-21T10:58:06;21.30;;;11.67;;
19343;SDS011;9808;52.402;16.678;2023-11-21T11:00:36;24.07;;;12.43;;
19343;SDS011;9808;52.402;16.678;2023-11-21T11:03:06;27.67;;;12.57;;
19343;SDS011;9808;52.402;16.678;2023-11-21T11:05:42;22.53;;;11.87;;
19343;SDS011;9808;52.402;16.678;2023-11-21T11:08:19;22.60;;;11.07;;
19343;SDS011;9808;52.402;16.678;2023-11-21T11:10:53;21.73;;;12.00;;
19343;SDS011;9808;52.402;16.678;2023-11-21T11:13:21;22.67;;;12.50;;
19343;SDS011;9808;52.402;16.678;2023-11-21T11:15:49;20.93;;;11.40;;
19343;SDS011;9808;52.402;16.678;2023-11-21T11:18:17;22.23;;;11.87;;
19343;SDS011;9808;52.402;16.678;2023-11-21T11:20:45;23.47;;;12.37;;
19343;SDS011;9808;52.402;16.678;2023-11-21T11:26:05;21.93;;;11.60;;
19343;SDS011;9808;52.402;16.678;2023-11-21T11:28:39;23.73;;;10.87;;
19343;SDS011;9808;52.402;16.678;2023-11-21T11:31:22;22.73;;;11.50;;
19343;SDS011;9808;52.402;16.678;2023-11-21T11:33:53;21.30;;;11.30;;
19343;SDS011;9808;52.402;16.678;2023-11-21T11:36:44;24.13;;;12.83;;
19343;SDS011;9808;52.402;16.678;2023-11-21T11:39:35;25.93;;;12.73;;
19343;SDS011;9808;52.402;16.678;2023-11-21T11:42:04;29.67;;;14.77;;
19343;SDS011;9808;52.402;16.678;2023-11-21T11:55:11;27.10;;;14.40;;
19343;SDS011;9808;52.402;16.678;2023-11-21T11:57:40;30.70;;;14.57;;
19343;SDS011;9808;52.402;16.678;2023-11-21T12:00:21;32.60;;;16.50;;
19343;SDS011;9808;52.402;16.678;2023-11-21T12:02:52;28.93;;;15.07;;
19343;SDS011;9808;52.402;16.678;2023-11-21T12:05:20;30.80;;;15.93;;
19343;SDS011;9808;52.402;16.678;2023-11-21T12:07:54;31.03;;;15.43;;
19343;SDS011;9808;52.402;16.678;2023-11-21T12:10:24;36.53;;;16.50;;
19343;SDS011;9808;52.402;16.678;2023-11-21T12:12:52;32.70;;;16.77;;
19343;SDS011;9808;52.402;16.678;2023-11-21T12:15:20;30.10;;;14.00;;
19343;SDS011;9808;52.402;16.678;2023-11-21T12:17:48;38.27;;;16.43;;
19343;SDS011;9808;52.402;16.678;2023-11-21T12:20:18;37.97;;;17.70;;
19343;SDS011;9808;52.402;16.678;2023-11-21T12:22:46;35.83;;;17.17;;
19343;SDS011;9808;52.402;16.678;2023-11-21T12:25:15;34.73;;;16.70;;
19343;SDS011;9808;52.402;16.678;2023-11-21T12:27:43;37.00;;;17.20;;
19343;SDS011;9808;52.402;16.678;2023-11-21T12:30:12;36.40;;;17.50;;
19343;SDS011;9808;52.402;16.678;2023-11-21T12:32:42;36.10;;;17.03;;
19343;SDS011;9808;52.402;16.678;2023-11-21T12:35:10;35.83;;;16.17;;
19343;SDS011;9808;52.402;16.678;2023-11-21T12:37:38;33.30;;;17.13;;
19343;SDS011;9808;52.402;16.678;2023-11-21T12:40:06;36.63;;;16.20;;
19343;SDS011;9808;52.402;16.678;2023-11-21T12:42:41;33.33;;;16.77;;
19343;SDS011;9808;52.402;16.678;2023-11-21T12:47:43;32.47;;;16.17;;
19343;SDS011;9808;52.402;16.678;2023-11-21T12:50:11;35.47;;;16.97;;
19343;SDS011;9808;52.402;16.678;2023-11-21T12:52:42;37.00;;;16.27;;
19343;SDS011;9808;52.402;16.678;2023-11-21T12:55:17;30.03;;;14.90;;
19343;SDS011;9808;52.402;16.678;2023-11-21T12:57:44;31.03;;;15.90;;
19343;SDS011;9808;52.402;16.678;2023-11-21T13:00:12;29.17;;;14.57;;
19343;SDS011;9808;52.402;16.678;2023-11-21T13:02:51;31.67;;;16.43;;
19343;SDS011;9808;52.402;16.678;2023-11-21T13:05:24;39.20;;;15.73;;
19343;SDS011;9808;52.402;16.678;2023-11-21T13:07:51;32.30;;;15.50;;
19343;SDS011;9808;52.402;16.678;2023-11-21T13:10:24;31.17;;;14.77;;
19343;SDS011;9808;52.402;16.678;2023-11-21T13:12:53;30.90;;;15.07;;
19343;SDS011;9808;52.402;16.678;2023-11-21T13:15:21;35.03;;;16.03;;
19343;SDS011;9808;52.402;16.678;2023-11-21T13:17:48;33.73;;;14.70;;
19343;SDS011;9808;52.402;16.678;2023-11-21T13:20:17;32.47;;;12.87;;
19343;SDS011;9808;52.402;16.678;2023-11-21T13:22:50;38.43;;;16.83;;
19343;SDS011;9808;52.402;16.678;2023-11-21T13:25:24;32.40;;;16.33;;
19343;SDS011;9808;52.402;16.678;2023-11-21T13:27:59;34.70;;;15.77;;
19343;SDS011;9808;52.402;16.678;2023-11-21T13:30:27;34.33;;;15.17;;
19343;SDS011;9808;52.402;16.678;2023-11-21T13:33:01;34.47;;;15.97;;
19343;SDS011;9808;52.402;16.678;2023-11-21T13:35:34;34.37;;;16.27;;
19343;SDS011;9808;52.402;16.678;2023-11-21T13:38:04;32.93;;;16.03;;
19343;SDS011;9808;52.402;16.678;2023-11-21T13:40:33;33.30;;;15.93;;
19343;SDS011;9808;52.402;16.678;2023-11-21T13:43:06;36.23;;;16.53;;
19343;SDS011;9808;52.402;16.678;2023-11-21T13:45:43;32.43;;;16.13;;
19343;SDS011;9808;52.402;16.678;2023-11-21T13:48:11;34.00;;;16.53;;
19343;SDS011;9808;52.402;16.678;2023-11-21T13:50:48;36.47;;;16.03;;
19343;SDS011;9808;52.402;16.678;2023-11-21T13:53:25;36.43;;;18.00;;
19343;SDS011;9808;52.402;16.678;2023-11-21T13:55:55;33.37;;;15.37;;
19343;SDS011;9808;52.402;16.678;2023-11-21T13:58:25;34.07;;;16.57;;
19343;SDS011;9808;52.402;16.678;2023-11-21T14:01:07;37.87;;;16.40;;
19343;SDS011;9808;52.402;16.678;2023-11-21T14:03:51;34.07;;;15.60;;
19343;SDS011;9808;52.402;16.678;2023-11-21T14:06:24;35.23;;;17.17;;
19343;SDS011;9808;52.402;16.678;2023-11-21T14:08:59;42.57;;;18.10;;
19343;SDS011;9808;52.402;16.678;2023-11-21T14:11:31;35.30;;;16.30;;
19343;SDS011;9808;52.402;16.678;2023-11-21T14:14:08;37.53;;;16.83;;
19343;SDS011;9808;52.402;16.678;2023-11-21T14:16:36;34.47;;;16.97;;
19343;SDS011;9808;52.402;16.678;2023-11-21T14:19:03;25.40;;;11.73;;
19343;SDS011;9808;52.402;16.678;2023-11-21T14:21:42;31.93;;;16.33;;
19343;SDS011;9808;52.402;16.678;2023-11-21T14:24:10;32.43;;;15.37;;
19343;SDS011;9808;52.402;16.678;2023-11-21T14:26:42;33.10;;;16.57;;
19343;SDS011;9808;52.402;16.678;2023-11-21T14:29:12;34.93;;;16.53;;
19343;SDS011;9808;52.402;16.678;2023-11-21T14:31:42;33.57;;;16.97;;
19343;SDS011;9808;52.402;16.678;2023-11-21T14:34:10;33.23;;;15.93;;
19343;SDS011;9808;52.402;16.678;2023-11-21T14:36:38;35.07;;;14.57;;
19343;SDS011;9808;52.402;16.678;2023-11-21T14:39:06;28.73;;;15.00;;
19343;SDS011;9808;52.402;16.678;2023-11-21T14:41:37;31.90;;;15.90;;
19343;SDS011;9808;52.402;16.678;2023-11-21T14:44:05;27.70;;;13.40;;
19343;SDS011;9808;52.402;16.678;2023-11-21T14:46:38;32.70;;;16.53;;
19343;SDS011;9808;52.402;16.678;2023-11-21T14:49:07;29.40;;;14.93;;
19343;SDS011;9808;52.402;16.678;2023-11-21T14:51:52;30.77;;;14.47;;